This is the latest recevied weather packets stored in our database for station/object EA1FLU-10. If no packets are shown the sender has not sent any weather packets the latest 10 day(s).
| Time | Temp. | Humidity | Pressure | Rain* | Wind** | Luminosity | Snow |
|---|---|---|---|---|---|---|---|
| 1778096751 | 19.44° C | 45% | 1016.7 hPa | - | - | - | - |
| 1778094951 | 20° C | 44% | 1016.5 hPa | - | - | - | - |
| 1778093151 | 20.56° C | 43% | 1016.2 hPa | - | - | - | - |
| 1778091351 | 21.11° C | 42% | 1016.2 hPa | - | - | - | - |
| 1778089551 | 21.67° C | 40% | 1016.2 hPa | - | - | - | - |
| 1778087751 | 22.22° C | 40% | 1016.3 hPa | - | - | - | - |
| 1778085951 | 22.78° C | 39% | 1016.4 hPa | - | - | - | - |
| 1778084151 | 23.33° C | 38% | 1016.5 hPa | - | - | - | - |
| 1778082351 | 23.33° C | 38% | 1016.7 hPa | - | - | - | - |
| 1778080551 | 23.33° C | 38% | 1016.9 hPa | - | - | - | - |
| 1778078751 | 24.44° C | 37% | 1017.1 hPa | - | - | - | - |
| 1778076951 | 23.89° C | 38% | 1017.2 hPa | - | - | - | - |
| 1778075151 | 22.78° C | 40% | 1017.5 hPa | - | - | - | - |
| 1778073350 | 23.33° C | 38% | 1017.6 hPa | - | - | - | - |
| 1778071553 | 23.33° C | 37% | 1017.9 hPa | - | - | - | - |
| 1778069750 | 23.33° C | 36% | 1018.3 hPa | - | - | - | - |
| 1778067950 | 22.78° C | 38% | 1018.4 hPa | - | - | - | - |
| 1778066150 | 22.22° C | 39% | 1018.6 hPa | - | - | - | - |
| 1778064350 | 20.56° C | 43% | 1018.8 hPa | - | - | - | - |
| 1778062550 | 19.44° C | 44% | 1018.9 hPa | - | - | - | - |
| 1778060750 | 19.44° C | 44% | 1018.9 hPa | - | - | - | - |
| 1778058950 | 18.33° C | 48% | 1018.8 hPa | - | - | - | - |
| 1778057150 | 18.33° C | 46% | 1018.7 hPa | - | - | - | - |
| 1778055350 | 17.78° C | 45% | 1018.8 hPa | - | - | - | - |
| 1778053550 | 16.67° C | 46% | 1019 hPa | - | - | - | - |
* Rain since midnight (hover to see other rain measurements)
** Current wind speed in m/s (hover to see current wind gust speed)